Time;durP1;ratioP1;P1;durP2;ratioP2;P2;SDS_P1;SDS_P2;PMS_P1;PMS_P2;Temp;Humidity;BMP_temperature;BMP_pressure;BME280_temperature;BME280_humidity;BME280_pressure;Samples;Min_cycle;Max_cycle;Signal;HPM_P1;HPM_P2
2021/08/19 00:01:50;;;;;;;;;2.50;2.50;;;;;;;;5080973;28;46860;-79
2021/08/19 00:04:16;;;;;;;;;1.50;1.50;;;;;;;;5062358;28;47015;-79
2021/08/19 00:06:42;;;;;;;;;2.50;1.75;;;;;;;;5080771;28;46884;-79
2021/08/19 00:09:07;;;;;;;;;3.00;2.50;;;;;;;;5080398;28;46860;-79
2021/08/19 00:11:33;;;;;;;;;4.50;3.00;;;;;;;;5062315;28;47108;-79
2021/08/19 00:13:58;;;;;;;;;3.50;2.25;;;;;;;;5079830;28;46855;-79
2021/08/19 00:16:23;;;;;;;;;1.75;1.75;;;;;;;;5080513;28;46980;-79
2021/08/19 00:18:49;;;;;;;;;1.50;1.00;;;;;;;;5080252;28;46904;-79
2021/08/19 00:21:14;;;;;;;;;4.00;1.00;;;;;;;;5080487;28;46981;-79
2021/08/19 00:23:39;;;;;;;;;3.00;2.75;;;;;;;;5062055;28;46998;-79
2021/08/19 00:26:05;;;;;;;;;1.00;1.00;;;;;;;;5054466;28;47238;-79
2021/08/19 00:28:31;;;;;;;;;2.00;2.00;;;;;;;;5074248;28;46853;-79
2021/08/19 00:30:56;;;;;;;;;2.50;2.00;;;;;;;;5080409;28;46996;-79
2021/08/19 00:33:22;;;;;;;;;2.00;2.00;;;;;;;;5080202;28;46877;-79
2021/08/19 00:35:47;;;;;;;;;1.75;1.50;;;;;;;;5080178;28;46885;-79
2021/08/19 00:38:13;;;;;;;;;1.00;1.00;;;;;;;;5079963;28;46760;-79
2021/08/19 00:40:38;;;;;;;;;2.50;2.25;;;;;;;;5080225;28;47173;-79
2021/08/19 00:43:07;;;;;;;;;2.50;2.00;;;;;;;;5079857;28;47066;-79
2021/08/19 00:45:32;;;;;;;;;2.75;2.00;;;;;;;;5080102;28;47650;-79
2021/08/19 00:47:58;;;;;;;;;3.00;2.00;;;;;;;;5079897;28;46963;-79
2021/08/19 00:50:23;;;;;;;;;4.00;2.75;;;;;;;;5080152;28;47054;-79
2021/08/19 00:52:49;;;;;;;;;4.00;3.25;;;;;;;;5080059;28;46918;-79
2021/08/19 00:55:14;;;;;;;;;2.00;2.00;;;;;;;;5080107;28;47318;-78
2021/08/19 00:57:44;;;;;;;;;1.25;1.25;;;;;;;;5079541;28;46924;-79
2021/08/19 01:00:10;;;;;;;;;3.00;2.00;;;;;;;;5079610;28;46795;-79
2021/08/19 01:02:36;;;;;;;;;1.00;1.00;;;;;;;;5079841;28;46984;-78
2021/08/19 01:05:02;;;;;;;;;2.75;2.25;;;;;;;;5079732;28;47929;-78
2021/08/19 01:07:27;;;;;;;;;2.25;1.50;;;;;;;;5079302;28;47275;-78
2021/08/19 01:09:53;;;;;;;;;2.00;2.00;;;;;;;;5079404;28;46954;-78
2021/08/19 01:12:18;;;;;;;;;1.75;1.75;;;;;;;;5061347;28;47483;-78
2021/08/19 01:14:45;;;;;;;;;3.00;2.00;;;;;;;;5079239;28;47724;-78
2021/08/19 01:17:14;;;;;;;;;2.00;2.00;;;;;;;;5079423;28;46926;-78
2021/08/19 01:19:40;;;;;;;;;2.50;1.25;;;;;;;;5079850;28;46834;-79
2021/08/19 01:22:06;;;;;;;;;1.75;1.75;;;;;;;;5079505;28;47029;-79
2021/08/19 01:24:31;;;;;;;;;1.00;1.00;;;;;;;;5079447;28;46943;-79
2021/08/19 01:26:56;;;;;;;;;2.00;2.00;;;;;;;;5048234;28;47019;-79
2021/08/19 01:29:22;;;;;;;;;3.75;3.00;;;;;;;;5079189;28;46993;-78
2021/08/19 01:31:56;;;;;;;;;3.25;2.50;;;;;;;;5079439;28;46809;-78
2021/08/19 01:34:22;;;;;;;;;1.75;0.75;;;;;;;;5079081;28;47299;-78
2021/08/19 01:36:47;;;;;;;;;2.00;1.00;;;;;;;;5079241;28;47009;-78
2021/08/19 01:39:12;;;;;;;;;1.75;1.75;;;;;;;;5079295;28;46901;-78
2021/08/19 01:41:38;;;;;;;;;1.00;0.75;;;;;;;;5079399;28;46974;-79
2021/08/19 01:44:03;;;;;;;;;2.00;1.50;;;;;;;;5078637;28;48196;-79
2021/08/19 01:46:29;;;;;;;;;1.50;1.00;;;;;;;;5079298;28;46999;-79
2021/08/19 01:48:54;;;;;;;;;0.75;0.75;;;;;;;;5079246;28;46948;-78
2021/08/19 01:51:20;;;;;;;;;1.75;1.75;;;;;;;;5079312;28;46918;-79
2021/08/19 01:53:48;;;;;;;;;2.00;1.00;;;;;;;;5079072;28;47122;-79
2021/08/19 01:56:14;;;;;;;;;1.50;1.50;;;;;;;;5078995;28;46895;-78
2021/08/19 01:58:40;;;;;;;;;1.75;1.00;;;;;;;;5078721;28;46835;-78
2021/08/19 02:01:05;;;;;;;;;1.75;1.75;;;;;;;;5079258;28;46781;-78
2021/08/19 02:03:31;;;;;;;;;2.00;2.00;;;;;;;;5078895;28;47670;-79
2021/08/19 02:05:56;;;;;;;;;1.75;1.75;;;;;;;;5078746;28;46901;-78
2021/08/19 02:08:21;;;;;;;;;2.25;2.25;;;;;;;;5079070;28;46900;-78
2021/08/19 02:10:47;;;;;;;;;1.75;1.75;;;;;;;;5078968;28;47101;-78
2021/08/19 02:13:13;;;;;;;;;1.25;1.00;;;;;;;;5078437;28;47879;-78
2021/08/19 02:15:38;;;;;;;;;2.00;2.00;;;;;;;;5060445;28;46869;-78
2021/08/19 02:18:03;;;;;;;;;2.00;1.75;;;;;;;;5078887;28;46958;-78
2021/08/19 02:20:29;;;;;;;;;1.75;1.75;;;;;;;;5081373;28;46943;-78
2021/08/19 02:22:58;;;;;;;;;2.50;2.25;;;;;;;;5082174;28;46929;-78
2021/08/19 02:25:24;;;;;;;;;1.75;1.75;;;;;;;;5062178;28;47179;-78
2021/08/19 02:27:49;;;;;;;;;2.00;1.75;;;;;;;;5070585;28;46776;-78
2021/08/19 02:30:14;;;;;;;;;1.50;1.50;;;;;;;;5082166;28;47517;-78
2021/08/19 02:32:39;;;;;;;;;2.50;2.25;;;;;;;;5082119;28;46826;-78
2021/08/19 02:35:05;;;;;;;;;2.00;1.75;;;;;;;;5081950;28;46786;-78
2021/08/19 02:37:30;;;;;;;;;0.75;0.75;;;;;;;;5082196;28;47077;-78
2021/08/19 02:39:56;;;;;;;;;1.75;1.75;;;;;;;;5082099;28;47223;-78
2021/08/19 02:42:21;;;;;;;;;2.25;1.75;;;;;;;;5081851;28;47999;-78
2021/08/19 02:44:46;;;;;;;;;2.50;1.00;;;;;;;;5063229;28;47173;-78
2021/08/19 02:47:12;;;;;;;;;2.00;1.25;;;;;;;;5081939;28;47027;-78
2021/08/19 02:49:37;;;;;;;;;1.25;1.00;;;;;;;;5081999;28;47004;-78
2021/08/19 02:52:03;;;;;;;;;1.75;1.75;;;;;;;;5081709;28;47731;-78
2021/08/19 02:54:28;;;;;;;;;1.00;1.00;;;;;;;;5081629;28;46986;-78
2021/08/19 02:56:55;;;;;;;;;2.00;1.75;;;;;;;;5081952;28;47073;-78
2021/08/19 02:59:20;;;;;;;;;1.75;1.75;;;;;;;;5081501;28;47161;-78
2021/08/19 03:01:45;;;;;;;;;2.00;1.75;;;;;;;;5063263;28;47100;-78
2021/08/19 03:04:11;;;;;;;;;2.50;1.00;;;;;;;;5081412;28;46797;-78
2021/08/19 03:06:36;;;;;;;;;1.00;1.00;;;;;;;;5063299;28;46885;-78
2021/08/19 03:09:01;;;;;;;;;2.75;1.75;;;;;;;;5063396;28;46787;-78
2021/08/19 03:11:27;;;;;;;;;3.00;2.00;;;;;;;;5081512;28;47600;-78
2021/08/19 03:13:53;;;;;;;;;1.50;0.75;;;;;;;;5062457;28;46921;-78
2021/08/19 03:16:18;;;;;;;;;1.00;1.00;;;;;;;;5063255;28;46888;-78
2021/08/19 03:18:43;;;;;;;;;3.50;1.75;;;;;;;;5081539;28;46819;-78
2021/08/19 03:21:09;;;;;;;;;2.50;2.00;;;;;;;;5081305;28;46904;-78
2021/08/19 03:23:34;;;;;;;;;3.25;2.00;;;;;;;;5081089;28;46814;-78
2021/08/19 03:25:59;;;;;;;;;2.00;1.75;;;;;;;;5074813;28;46753;-78
2021/08/19 03:28:25;;;;;;;;;2.00;2.00;;;;;;;;5075127;28;46954;-79
2021/08/19 03:30:50;;;;;;;;;2.25;1.75;;;;;;;;5062171;28;48672;-78
2021/08/19 03:33:17;;;;;;;;;2.00;2.00;;;;;;;;5081029;28;47003;-78
2021/08/19 03:35:43;;;;;;;;;2.00;2.00;;;;;;;;5081442;28;46990;-78
2021/08/19 03:38:09;;;;;;;;;1.25;1.00;;;;;;;;5081227;28;47263;-78
2021/08/19 03:40:34;;;;;;;;;1.00;1.00;;;;;;;;5081119;28;47187;-78
2021/08/19 03:42:59;;;;;;;;;3.25;0.75;;;;;;;;5080461;28;46914;-78
2021/08/19 03:45:25;;;;;;;;;0.75;0.75;;;;;;;;5081288;28;46926;-78
2021/08/19 03:47:50;;;;;;;;;1.75;1.75;;;;;;;;5081013;28;46908;-78
2021/08/19 03:50:15;;;;;;;;;2.00;2.00;;;;;;;;5081143;28;47785;-78
2021/08/19 03:52:41;;;;;;;;;2.00;2.00;;;;;;;;5062495;28;46901;-78
2021/08/19 03:55:06;;;;;;;;;2.75;2.75;;;;;;;;5080947;28;46884;-78
2021/08/19 03:57:32;;;;;;;;;1.50;1.00;;;;;;;;5080824;28;46837;-78
2021/08/19 03:59:57;;;;;;;;;2.00;1.00;;;;;;;;5080288;28;47050;-78
2021/08/19 04:02:22;;;;;;;;;1.75;1.25;;;;;;;;5080692;28;46868;-78
2021/08/19 04:04:48;;;;;;;;;2.50;0.75;;;;;;;;5080554;28;46812;-78
2021/08/19 04:07:13;;;;;;;;;1.75;1.75;;;;;;;;5080809;28;46800;-78
2021/08/19 04:09:38;;;;;;;;;1.50;1.50;;;;;;;;5080487;28;46732;-77
2021/08/19 04:12:04;;;;;;;;;2.00;2.00;;;;;;;;5080498;28;46952;-77
2021/08/19 04:14:31;;;;;;;;;1.75;1.75;;;;;;;;5061605;28;46955;-77
2021/08/19 04:16:56;;;;;;;;;1.75;1.75;;;;;;;;5080736;28;47005;-79
2021/08/19 04:19:21;;;;;;;;;0.00;0.00;;;;;;;;5080308;28;46972;-79
2021/08/19 04:21:47;;;;;;;;;1.00;1.00;;;;;;;;5080460;28;46963;-79
2021/08/19 04:24:12;;;;;;;;;3.50;2.50;;;;;;;;5061930;28;47049;-78
2021/08/19 04:26:37;;;;;;;;;2.25;2.25;;;;;;;;5068588;28;46965;-78
2021/08/19 04:29:03;;;;;;;;;1.00;0.75;;;;;;;;5078595;28;47122;-78
2021/08/19 04:31:28;;;;;;;;;4.25;3.50;;;;;;;;5080283;28;46993;-78
2021/08/19 04:33:53;;;;;;;;;2.50;1.25;;;;;;;;5061894;28;47020;-78
2021/08/19 04:36:19;;;;;;;;;1.75;1.25;;;;;;;;5080322;28;47360;-77
2021/08/19 04:38:44;;;;;;;;;2.75;2.75;;;;;;;;5079935;28;47557;-77
2021/08/19 04:41:09;;;;;;;;;4.75;1.75;;;;;;;;5080301;28;46915;-78
2021/08/19 04:43:35;;;;;;;;;1.00;1.00;;;;;;;;5078346;28;47167;-77
2021/08/19 04:46:00;;;;;;;;;1.75;1.75;;;;;;;;5080413;28;46877;-77
2021/08/19 04:48:26;;;;;;;;;1.75;1.75;;;;;;;;5061499;28;46925;-77
2021/08/19 04:50:51;;;;;;;;;2.00;2.00;;;;;;;;5080018;28;46936;-78
2021/08/19 04:53:17;;;;;;;;;2.25;2.25;;;;;;;;5079900;28;46917;-78
2021/08/19 04:55:42;;;;;;;;;4.25;2.75;;;;;;;;5080061;28;47262;-78
2021/08/19 04:58:07;;;;;;;;;1.75;1.75;;;;;;;;5079209;28;46868;-78
2021/08/19 05:00:33;;;;;;;;;2.75;2.75;;;;;;;;5061605;28;46816;-78
2021/08/19 05:02:58;;;;;;;;;4.00;3.00;;;;;;;;5079688;28;46822;-78
2021/08/19 05:05:23;;;;;;;;;2.00;2.00;;;;;;;;5079867;28;46989;-78
2021/08/19 05:07:49;;;;;;;;;2.00;2.00;;;;;;;;5079570;28;46827;-78
2021/08/19 05:10:14;;;;;;;;;4.00;4.00;;;;;;;;5079640;28;46857;-78
2021/08/19 05:12:39;;;;;;;;;3.00;3.00;;;;;;;;5079682;28;46845;-78
2021/08/19 05:15:05;;;;;;;;;3.00;3.00;;;;;;;;5079423;28;47340;-78
2021/08/19 05:17:30;;;;;;;;;2.50;2.50;;;;;;;;5079340;28;47934;-78
2021/08/19 05:19:55;;;;;;;;;2.50;2.50;;;;;;;;5079689;28;46928;-78
2021/08/19 05:22:21;;;;;;;;;3.25;3.25;;;;;;;;5061110;28;47062;-78
2021/08/19 05:24:46;;;;;;;;;3.00;3.00;;;;;;;;5079629;28;47057;-78
2021/08/19 05:27:11;;;;;;;;;3.50;3.50;;;;;;;;5065798;28;48127;-78
2021/08/19 05:29:37;;;;;;;;;2.50;2.50;;;;;;;;5078964;28;47188;-78
2021/08/19 05:32:02;;;;;;;;;4.00;2.00;;;;;;;;5079323;28;47022;-78
2021/08/19 05:34:27;;;;;;;;;3.75;3.50;;;;;;;;5079564;28;46988;-78
2021/08/19 05:36:53;;;;;;;;;5.00;2.75;;;;;;;;5079054;28;47832;-78
2021/08/19 05:39:18;;;;;;;;;6.25;3.75;;;;;;;;5079416;28;46943;-78
2021/08/19 05:41:43;;;;;;;;;8.00;5.75;;;;;;;;5079216;28;47138;-77
2021/08/19 05:44:09;;;;;;;;;6.00;5.00;;;;;;;;5078989;28;46983;-77
2021/08/19 05:46:34;;;;;;;;;6.00;5.00;;;;;;;;5060711;28;46989;-77
2021/08/19 05:49:00;;;;;;;;;5.00;5.00;;;;;;;;5079234;28;47069;-78
2021/08/19 05:51:26;;;;;;;;;3.75;2.50;;;;;;;;5060817;28;47160;-78
2021/08/19 05:53:51;;;;;;;;;4.75;4.00;;;;;;;;5079494;28;46985;-78
2021/08/19 05:56:16;;;;;;;;;4.75;3.75;;;;;;;;5082461;28;46862;-78
2021/08/19 05:58:42;;;;;;;;;4.00;4.00;;;;;;;;5082309;28;46858;-78
2021/08/19 06:01:07;;;;;;;;;5.00;4.25;;;;;;;;5082454;28;46780;-78
2021/08/19 06:03:32;;;;;;;;;6.00;4.00;;;;;;;;5082658;28;46801;-78
2021/08/19 06:05:58;;;;;;;;;6.50;5.75;;;;;;;;5082332;28;46958;-78
2021/08/19 06:08:23;;;;;;;;;6.00;4.25;;;;;;;;5064104;28;47702;-78
2021/08/19 06:10:48;;;;;;;;;6.75;3.25;;;;;;;;5082427;28;46975;-78
2021/08/19 06:13:13;;;;;;;;;3.50;3.00;;;;;;;;5082362;28;46710;-78
2021/08/19 06:15:39;;;;;;;;;5.00;3.25;;;;;;;;5082158;28;47595;-78
2021/08/19 06:18:04;;;;;;;;;3.00;3.00;;;;;;;;5082430;28;46793;-78
2021/08/19 06:20:30;;;;;;;;;4.00;3.25;;;;;;;;5082133;28;46907;-78
2021/08/19 06:22:55;;;;;;;;;5.50;4.00;;;;;;;;5082542;28;46769;-78
2021/08/19 06:25:21;;;;;;;;;4.75;4.75;;;;;;;;5080632;28;47048;-78
2021/08/19 06:27:47;;;;;;;;;7.00;6.75;;;;;;;;5069951;28;47123;-78
2021/08/19 06:30:13;;;;;;;;;6.00;5.00;;;;;;;;5082097;28;46906;-78
2021/08/19 06:32:38;;;;;;;;;5.50;3.75;;;;;;;;5082521;28;46982;-78
2021/08/19 06:35:04;;;;;;;;;7.50;4.75;;;;;;;;5081792;28;47203;-78
2021/08/19 06:37:29;;;;;;;;;3.00;2.00;;;;;;;;5082135;28;46876;-78
2021/08/19 06:39:54;;;;;;;;;7.00;4.00;;;;;;;;5063773;28;46999;-78
2021/08/19 06:42:20;;;;;;;;;5.25;4.25;;;;;;;;5082219;28;47047;-78
2021/08/19 06:44:45;;;;;;;;;3.50;3.50;;;;;;;;5081359;28;46844;-78
2021/08/19 06:47:10;;;;;;;;;5.75;5.00;;;;;;;;5082020;28;47007;-78
2021/08/19 06:49:36;;;;;;;;;6.25;4.75;;;;;;;;5081816;28;46895;-78
2021/08/19 06:52:02;;;;;;;;;4.00;4.00;;;;;;;;5082109;28;46730;-78
2021/08/19 06:54:27;;;;;;;;;7.25;5.00;;;;;;;;5081572;28;47741;-78
2021/08/19 06:56:52;;;;;;;;;4.75;4.00;;;;;;;;5081821;28;46727;-78
2021/08/19 06:59:18;;;;;;;;;5.00;3.50;;;;;;;;5081276;28;46870;-78
2021/08/19 07:01:43;;;;;;;;;4.75;4.75;;;;;;;;5081842;28;46801;-78
2021/08/19 07:04:08;;;;;;;;;4.75;4.75;;;;;;;;5081345;28;47958;-78
2021/08/19 07:06:34;;;;;;;;;6.25;3.50;;;;;;;;5080478;28;46898;-78
2021/08/19 07:08:59;;;;;;;;;4.50;4.00;;;;;;;;5081551;28;46896;-78
2021/08/19 07:11:24;;;;;;;;;5.25;4.75;;;;;;;;5063433;28;46743;-78
2021/08/19 07:13:50;;;;;;;;;4.00;4.00;;;;;;;;5080939;28;46947;-78
2021/08/19 07:16:15;;;;;;;;;4.00;4.00;;;;;;;;5081144;28;46969;-78
2021/08/19 07:18:40;;;;;;;;;4.00;4.00;;;;;;;;5063275;28;47107;-78
2021/08/19 07:21:06;;;;;;;;;4.00;3.50;;;;;;;;5081306;28;47132;-78
2021/08/19 07:23:32;;;;;;;;;5.25;5.25;;;;;;;;5081101;28;47013;-78
2021/08/19 07:25:57;;;;;;;;;4.00;4.00;;;;;;;;5080854;28;46977;-78
2021/08/19 07:28:22;;;;;;;;;4.00;4.00;;;;;;;;5080905;28;46948;-78
2021/08/19 07:30:48;;;;;;;;;5.00;5.00;;;;;;;;5081294;28;46875;-78
2021/08/19 07:33:13;;;;;;;;;3.75;3.50;;;;;;;;5081199;28;47104;-78
2021/08/19 07:35:38;;;;;;;;;6.00;5.00;;;;;;;;5080946;28;47025;-77
2021/08/19 07:38:04;;;;;;;;;5.00;4.25;;;;;;;;5062914;28;47052;-77
2021/08/19 07:40:30;;;;;;;;;4.00;4.00;;;;;;;;5081126;28;47255;-77
2021/08/19 07:42:56;;;;;;;;;7.75;6.00;;;;;;;;5080595;28;47004;-77
2021/08/19 07:45:23;;;;;;;;;5.00;4.75;;;;;;;;5080665;28;46759;-77
2021/08/19 07:47:48;;;;;;;;;5.00;5.00;;;;;;;;5081148;28;46924;-77
2021/08/19 07:50:14;;;;;;;;;7.00;5.00;;;;;;;;5080969;28;46735;-77
2021/08/19 07:52:39;;;;;;;;;5.25;4.75;;;;;;;;5080895;28;47488;-77
2021/08/19 07:55:05;;;;;;;;;5.00;4.00;;;;;;;;5080549;28;46789;-77
2021/08/19 07:57:40;;;;;;;;;4.25;4.25;;;;;;;;5080822;28;47004;-77
2021/08/19 08:00:06;;;;;;;;;4.25;4.00;;;;;;;;5080996;28;47232;-77
2021/08/19 08:02:32;;;;;;;;;7.50;5.50;;;;;;;;5062342;28;48501;-77
2021/08/19 08:04:57;;;;;;;;;5.50;5.00;;;;;;;;5080566;28;47030;-77
2021/08/19 08:07:22;;;;;;;;;5.50;5.50;;;;;;;;5080687;28;47104;-77
2021/08/19 08:09:47;;;;;;;;;5.25;4.25;;;;;;;;5080856;28;47172;-77
2021/08/19 08:12:13;;;;;;;;;5.75;4.00;;;;;;;;5080303;28;47878;-77
2021/08/19 08:14:38;;;;;;;;;7.00;4.50;;;;;;;;5080110;28;47006;-77
2021/08/19 08:17:03;;;;;;;;;5.25;5.25;;;;;;;;5062010;28;46979;-77
2021/08/19 08:19:29;;;;;;;;;6.00;4.00;;;;;;;;5080640;28;46919;-77
2021/08/19 08:21:54;;;;;;;;;6.50;5.00;;;;;;;;5080424;28;47000;-77
2021/08/19 08:24:19;;;;;;;;;7.75;6.50;;;;;;;;5080197;28;46912;-77
2021/08/19 08:26:46;;;;;;;;;6.00;5.00;;;;;;;;5067064;28;46899;-77
2021/08/19 08:29:13;;;;;;;;;5.00;5.00;;;;;;;;5080068;28;47211;-77
2021/08/19 08:31:39;;;;;;;;;4.50;3.25;;;;;;;;5080263;28;46842;-77
2021/08/19 08:34:04;;;;;;;;;7.75;4.50;;;;;;;;5080071;28;46917;-77
2021/08/19 08:36:30;;;;;;;;;5.00;5.00;;;;;;;;5061946;28;46810;-77
2021/08/19 08:38:56;;;;;;;;;5.25;4.50;;;;;;;;5080391;28;46773;-77
2021/08/19 08:41:22;;;;;;;;;4.50;4.50;;;;;;;;5080164;28;48251;-77
2021/08/19 08:43:48;;;;;;;;;8.00;6.00;;;;;;;;5079673;28;46974;-77
2021/08/19 08:46:14;;;;;;;;;6.00;5.00;;;;;;;;5080122;28;46911;-77
2021/08/19 08:48:42;;;;;;;;;5.50;4.50;;;;;;;;5080255;28;47117;-77
2021/08/19 08:51:07;;;;;;;;;6.50;4.00;;;;;;;;5079941;28;47846;-77
2021/08/19 08:53:33;;;;;;;;;5.75;5.75;;;;;;;;5079955;28;46831;-77
2021/08/19 08:55:58;;;;;;;;;5.00;4.75;;;;;;;;5079938;28;46780;-77
2021/08/19 08:58:23;;;;;;;;;6.00;4.50;;;;;;;;5079824;28;47027;-77
2021/08/19 09:00:49;;;;;;;;;5.75;4.00;;;;;;;;5061405;28;47179;-77
2021/08/19 09:03:15;;;;;;;;;7.75;4.50;;;;;;;;5061412;28;47119;-77
2021/08/19 09:05:42;;;;;;;;;6.50;4.00;;;;;;;;5079841;28;47275;-77
2021/08/19 09:08:15;;;;;;;;;7.25;5.25;;;;;;;;5061654;28;46933;-77
2021/08/19 09:10:40;;;;;;;;;7.00;6.25;;;;;;;;5079567;28;47795;-77
2021/08/19 09:13:14;;;;;;;;;6.00;6.00;;;;;;;;5079420;28;46854;-77
2021/08/19 09:15:41;;;;;;;;;5.00;4.00;;;;;;;;5079470;28;47128;-77
2021/08/19 09:18:06;;;;;;;;;4.25;4.25;;;;;;;;5079801;28;47026;-77
2021/08/19 09:20:42;;;;;;;;;5.00;5.00;;;;;;;;5079203;28;47188;-77
2021/08/19 09:23:08;;;;;;;;;5.50;5.00;;;;;;;;5079451;28;47002;-77
2021/08/19 09:25:40;;;;;;;;;6.75;4.00;;;;;;;;5076230;28;46889;-77
2021/08/19 09:28:14;;;;;;;;;6.50;5.50;;;;;;;;5070549;28;47194;-77
2021/08/19 09:30:41;;;;;;;;;5.00;4.75;;;;;;;;5060196;28;49270;-77
2021/08/19 09:33:06;;;;;;;;;6.00;4.75;;;;;;;;5079453;28;46994;-77
2021/08/19 09:35:32;;;;;;;;;5.00;5.00;;;;;;;;5079172;28;47100;-77
2021/08/19 09:38:04;;;;;;;;;5.75;4.50;;;;;;;;5079488;28;46938;-77
2021/08/19 09:40:30;;;;;;;;;4.00;4.00;;;;;;;;5079047;28;47066;-77
2021/08/19 09:42:56;;;;;;;;;1.00;1.00;;;;;;;;5078833;28;46755;-77
2021/08/19 09:45:22;;;;;;;;;4.50;4.50;;;;;;;;5079163;28;47372;-78
2021/08/19 09:47:47;;;;;;;;;6.00;4.00;;;;;;;;5079507;28;46942;-77
2021/08/19 09:50:15;;;;;;;;;5.25;5.00;;;;;;;;5079024;28;46976;-77
2021/08/19 09:52:41;;;;;;;;;6.50;4.25;;;;;;;;5060832;28;47066;-78
2021/08/19 09:55:19;;;;;;;;;6.25;4.00;;;;;;;;5079144;28;47113;-77
2021/08/19 09:57:44;;;;;;;;;4.25;4.00;;;;;;;;5060369;28;47256;-77
2021/08/19 10:00:21;;;;;;;;;6.50;4.00;;;;;;;;5078970;28;46960;-77
2021/08/19 10:02:46;;;;;;;;;5.00;5.00;;;;;;;;5079022;28;47093;-77
2021/08/19 10:05:13;;;;;;;;;4.75;4.00;;;;;;;;5079025;28;46840;-77
2021/08/19 10:07:38;;;;;;;;;7.75;4.25;;;;;;;;5079122;28;46926;-77
2021/08/19 10:10:03;;;;;;;;;7.50;4.75;;;;;;;;5060550;28;49559;-77
2021/08/19 10:12:29;;;;;;;;;5.75;4.75;;;;;;;;5078705;28;47110;-78
2021/08/19 10:14:54;;;;;;;;;6.25;5.75;;;;;;;;5078627;28;46944;-77
2021/08/19 10:17:20;;;;;;;;;3.00;3.00;;;;;;;;5060706;28;46974;-77
2021/08/19 10:19:46;;;;;;;;;6.00;4.00;;;;;;;;5078845;28;46897;-77
2021/08/19 10:22:15;;;;;;;;;5.50;4.00;;;;;;;;5078494;28;46833;-78
2021/08/19 10:24:42;;;;;;;;;5.75;3.75;;;;;;;;5078746;28;46770;-77
2021/08/19 10:27:08;;;;;;;;;2.00;2.00;;;;;;;;5065936;28;47098;-77
2021/08/19 10:29:44;;;;;;;;;6.00;4.00;;;;;;;;5078397;28;47300;-77
2021/08/19 10:32:21;;;;;;;;;3.00;3.00;;;;;;;;5078538;28;47173;-77
2021/08/19 10:34:57;;;;;;;;;4.00;4.00;;;;;;;;5060364;28;47056;-78
2021/08/19 10:37:46;;;;;;;;;4.75;3.25;;;;;;;;5078804;28;47317;-78
2021/08/19 10:40:24;;;;;;;;;4.75;3.00;;;;;;;;5054608;28;47259;-78
2021/08/19 10:42:53;;;;;;;;;4.25;4.00;;;;;;;;5081618;28;47023;-78
2021/08/19 10:45:27;;;;;;;;;4.00;4.00;;;;;;;;5081928;28;46936;-78
2021/08/19 10:48:08;;;;;;;;;5.00;5.00;;;;;;;;5082102;28;47195;-78
2021/08/19 10:50:35;;;;;;;;;5.00;4.25;;;;;;;;5081848;28;47066;-78
2021/08/19 10:53:14;;;;;;;;;5.25;5.00;;;;;;;;5081768;28;47079;-78
2021/08/19 10:55:42;;;;;;;;;3.25;2.75;;;;;;;;5081843;28;46819;-78
2021/08/19 10:58:23;;;;;;;;;5.00;4.00;;;;;;;;5081347;28;47009;-78
2021/08/19 11:00:49;;;;;;;;;3.50;3.50;;;;;;;;5081596;28;47814;-78
2021/08/19 11:03:33;;;;;;;;;4.00;4.00;;;;;;;;5081866;28;46907;-78
2021/08/19 11:05:58;;;;;;;;;4.50;3.25;;;;;;;;5081694;28;46904;-78
2021/08/19 11:08:35;;;;;;;;;4.00;4.00;;;;;;;;5081830;28;47192;-78
2021/08/19 11:11:01;;;;;;;;;3.00;3.00;;;;;;;;5063090;28;49243;-78
2021/08/19 11:13:27;;;;;;;;;4.00;3.00;;;;;;;;5081165;28;47125;-78
2021/08/19 11:15:53;;;;;;;;;4.00;3.00;;;;;;;;5081168;28;46888;-78
2021/08/19 11:18:28;;;;;;;;;4.00;3.00;;;;;;;;5081706;28;47062;-78
2021/08/19 11:20:54;;;;;;;;;4.25;4.00;;;;;;;;5081053;28;47231;-78
2021/08/19 11:23:25;;;;;;;;;3.25;2.75;;;;;;;;5081249;28;46872;-78
2021/08/19 11:25:51;;;;;;;;;4.00;2.50;;;;;;;;5057543;28;46914;-78
2021/08/19 11:28:17;;;;;;;;;2.00;2.00;;;;;;;;5073657;28;46950;-78
2021/08/19 11:30:45;;;;;;;;;4.00;3.75;;;;;;;;5081087;28;48053;-78
2021/08/19 11:33:26;;;;;;;;;4.50;3.75;;;;;;;;5081353;28;47085;-78
2021/08/19 11:35:58;;;;;;;;;3.75;3.75;;;;;;;;5069405;28;47029;-78
2021/08/19 11:38:25;;;;;;;;;4.50;2.00;;;;;;;;5081263;28;47037;-78
2021/08/19 11:40:51;;;;;;;;;2.50;2.50;;;;;;;;5081055;28;46992;-78
2021/08/19 11:43:19;;;;;;;;;3.75;2.75;;;;;;;;5080608;28;47091;-78
2021/08/19 11:45:45;;;;;;;;;3.25;3.25;;;;;;;;5081190;28;46991;-78
2021/08/19 11:48:13;;;;;;;;;1.50;1.50;;;;;;;;5081060;28;47311;-78
2021/08/19 11:50:39;;;;;;;;;3.00;3.00;;;;;;;;5080966;28;48119;-78
2021/08/19 11:53:04;;;;;;;;;3.00;3.00;;;;;;;;5080189;28;46882;-78
2021/08/19 11:55:30;;;;;;;;;3.00;2.00;;;;;;;;5080961;28;46915;-78
2021/08/19 11:58:14;;;;;;;;;2.50;2.00;;;;;;;;5080418;28;46997;-78
2021/08/19 12:01:06;;;;;;;;;3.00;3.00;;;;;;;;5080690;28;46998;-78
2021/08/19 12:03:32;;;;;;;;;4.75;2.75;;;;;;;;5053368;28;47110;-78
2021/08/19 12:06:07;;;;;;;;;6.00;4.00;;;;;;;;5080815;28;46853;-78
2021/08/19 12:08:34;;;;;;;;;4.75;3.00;;;;;;;;5080937;28;46931;-78
2021/08/19 12:11:00;;;;;;;;;3.75;3.75;;;;;;;;5080482;28;46959;-78
2021/08/19 12:13:26;;;;;;;;;4.75;2.75;;;;;;;;5061923;28;46917;-78
2021/08/19 12:15:52;;;;;;;;;3.25;3.00;;;;;;;;5080386;28;47038;-78
2021/08/19 12:18:23;;;;;;;;;3.25;3.00;;;;;;;;5080765;28;47186;-78
2021/08/19 12:20:49;;;;;;;;;3.00;2.00;;;;;;;;5080237;28;46993;-78
2021/08/19 12:23:15;;;;;;;;;3.25;3.25;;;;;;;;5080407;28;46762;-78
2021/08/19 12:25:40;;;;;;;;;4.00;3.25;;;;;;;;5076236;28;47019;-78
2021/08/19 12:28:11;;;;;;;;;3.00;3.00;;;;;;;;5071508;28;47101;-77
2021/08/19 12:30:56;;;;;;;;;4.00;4.00;;;;;;;;5080036;28;46954;-77
2021/08/19 12:33:30;;;;;;;;;2.75;2.75;;;;;;;;5080144;28;46885;-77
2021/08/19 12:36:14;;;;;;;;;4.00;4.00;;;;;;;;5080273;28;47180;-77
2021/08/19 12:38:40;;;;;;;;;6.00;4.00;;;;;;;;5061924;28;46857;-78
2021/08/19 12:41:12;;;;;;;;;4.50;3.25;;;;;;;;5080068;28;47931;-78
2021/08/19 12:43:38;;;;;;;;;5.00;3.00;;;;;;;;5079424;28;47091;-78
2021/08/19 12:46:05;;;;;;;;;3.00;3.00;;;;;;;;5061809;28;46948;-78
2021/08/19 12:48:30;;;;;;;;;4.00;3.25;;;;;;;;5080270;28;47278;-78
2021/08/19 12:51:15;;;;;;;;;3.00;3.00;;;;;;;;5079890;28;46927;-78
2021/08/19 12:53:59;;;;;;;;;3.50;3.00;;;;;;;;5061591;28;47756;-78
2021/08/19 12:56:25;;;;;;;;;2.75;2.75;;;;;;;;5079885;28;46981;-78
2021/08/19 12:58:50;;;;;;;;;4.00;3.00;;;;;;;;5079756;28;46961;-78
2021/08/19 13:01:16;;;;;;;;;3.00;3.00;;;;;;;;5061407;28;49251;-78
2021/08/19 13:03:41;;;;;;;;;3.00;3.00;;;;;;;;5078973;28;46970;-77
2021/08/19 13:06:07;;;;;;;;;3.00;2.75;;;;;;;;5079604;28;46887;-77
2021/08/19 13:08:32;;;;;;;;;5.25;4.00;;;;;;;;5080106;28;46760;-78
2021/08/19 13:10:57;;;;;;;;;3.25;3.25;;;;;;;;5079589;28;47849;-78
2021/08/19 13:13:23;;;;;;;;;3.25;2.75;;;;;;;;5060974;28;46858;-78
2021/08/19 13:15:49;;;;;;;;;3.00;1.75;;;;;;;;5079424;28;47230;-78
2021/08/19 13:18:14;;;;;;;;;2.00;2.00;;;;;;;;5080027;28;46953;-78
2021/08/19 13:20:40;;;;;;;;;2.50;2.00;;;;;;;;5079421;28;47140;-78
2021/08/19 13:23:05;;;;;;;;;3.00;2.00;;;;;;;;5079424;28;46927;-78
2021/08/19 13:25:31;;;;;;;;;3.25;2.00;;;;;;;;5058306;28;46865;-78
2021/08/19 13:27:56;;;;;;;;;3.50;2.00;;;;;;;;5069358;28;46997;-78
2021/08/19 13:30:21;;;;;;;;;1.00;1.00;;;;;;;;5079248;28;46899;-78
2021/08/19 13:32:48;;;;;;;;;3.00;3.00;;;;;;;;5079366;28;47026;-78
2021/08/19 13:35:13;;;;;;;;;2.25;2.25;;;;;;;;5079297;28;46958;-78
2021/08/19 13:37:40;;;;;;;;;2.75;2.75;;;;;;;;5061218;28;46983;-78
2021/08/19 13:40:06;;;;;;;;;0.75;0.75;;;;;;;;5079131;28;48238;-78
2021/08/19 13:42:32;;;;;;;;;3.00;3.00;;;;;;;;5079156;28;46967;-78
2021/08/19 13:44:57;;;;;;;;;4.50;4.50;;;;;;;;5079061;28;46928;-78
2021/08/19 13:47:23;;;;;;;;;2.75;2.75;;;;;;;;5079580;28;46808;-78
2021/08/19 13:49:48;;;;;;;;;4.00;4.00;;;;;;;;5079025;28;47721;-78
2021/08/19 13:52:14;;;;;;;;;3.25;2.75;;;;;;;;5079290;28;46867;-77
2021/08/19 13:54:39;;;;;;;;;5.25;4.75;;;;;;;;5079102;28;46854;-77
2021/08/19 13:57:05;;;;;;;;;2.75;2.75;;;;;;;;5079281;28;46834;-78
2021/08/19 13:59:32;;;;;;;;;3.25;3.00;;;;;;;;5078480;28;46885;-78
2021/08/19 14:01:57;;;;;;;;;3.25;3.25;;;;;;;;5079136;28;46977;-78
2021/08/19 14:04:22;;;;;;;;;3.00;3.00;;;;;;;;5078909;28;47078;-79
2021/08/19 14:06:48;;;;;;;;;2.75;2.75;;;;;;;;5060859;28;47187;-76
2021/08/19 14:09:13;;;;;;;;;3.00;3.00;;;;;;;;5060542;28;47107;-77
2021/08/19 14:11:38;;;;;;;;;2.00;2.00;;;;;;;;5078998;28;46900;-77
2021/08/19 14:14:04;;;;;;;;;3.00;3.00;;;;;;;;5078094;28;46872;-77
2021/08/19 14:16:30;;;;;;;;;3.00;3.00;;;;;;;;5081708;28;47022;-77
2021/08/19 14:18:55;;;;;;;;;2.50;2.50;;;;;;;;5082309;28;47881;-77
2021/08/19 14:21:21;;;;;;;;;3.00;2.50;;;;;;;;5082454;28;46994;-77
2021/08/19 14:23:46;;;;;;;;;7.00;4.75;;;;;;;;5082143;28;46919;-77
2021/08/19 14:26:12;;;;;;;;;2.25;2.25;;;;;;;;5074202;28;47392;-77
2021/08/19 14:28:38;;;;;;;;;2.50;2.50;;;;;;;;5077124;28;46933;-77
2021/08/19 14:31:04;;;;;;;;;2.00;2.00;;;;;;;;5082185;28;46801;-77
2021/08/19 14:33:29;;;;;;;;;4.00;2.50;;;;;;;;5082114;28;46873;-77
2021/08/19 14:35:55;;;;;;;;;3.25;3.00;;;;;;;;5064060;28;47047;-77
2021/08/19 14:38:20;;;;;;;;;6.00;3.25;;;;;;;;5082027;28;46848;-77
2021/08/19 14:40:46;;;;;;;;;3.00;2.50;;;;;;;;5081968;28;46950;-77